sensor_id;sensor_type;location;lat;lon;timestamp;P1;durP1;ratioP1;P2;durP2;ratioP2
19691;SDS011;42748;50.016;19.890;2023-07-13T00:00:26;12.68;;;8.65;;
19691;SDS011;42748;50.016;19.890;2023-07-13T00:02:54;11.95;;;8.23;;
19691;SDS011;42748;50.016;19.890;2023-07-13T00:05:22;14.35;;;9.20;;
19691;SDS011;42748;50.016;19.890;2023-07-13T00:07:50;13.88;;;9.45;;
19691;SDS011;42748;50.016;19.890;2023-07-13T00:10:18;12.63;;;8.20;;
19691;SDS011;42748;50.016;19.890;2023-07-13T00:12:47;14.40;;;8.95;;
19691;SDS011;42748;50.016;19.890;2023-07-13T00:15:19;9.75;;;7.57;;
19691;SDS011;42748;50.016;19.890;2023-07-13T00:17:51;11.85;;;8.15;;
19691;SDS011;42748;50.016;19.890;2023-07-13T00:20:19;11.05;;;7.95;;
19691;SDS011;42748;50.016;19.890;2023-07-13T00:22:48;12.45;;;8.25;;
19691;SDS011;42748;50.016;19.890;2023-07-13T00:25:17;13.20;;;8.38;;
19691;SDS011;42748;50.016;19.890;2023-07-13T00:27:46;13.60;;;8.98;;
19691;SDS011;42748;50.016;19.890;2023-07-13T00:30:17;13.93;;;9.88;;
19691;SDS011;42748;50.016;19.890;2023-07-13T00:32:45;18.00;;;11.40;;
19691;SDS011;42748;50.016;19.890;2023-07-13T00:35:14;17.33;;;11.75;;
19691;SDS011;42748;50.016;19.890;2023-07-13T00:37:42;22.23;;;13.10;;
19691;SDS011;42748;50.016;19.890;2023-07-13T00:40:11;19.08;;;13.02;;
19691;SDS011;42748;50.016;19.890;2023-07-13T00:42:40;23.30;;;13.52;;
19691;SDS011;42748;50.016;19.890;2023-07-13T00:47:39;18.58;;;12.25;;
19691;SDS011;42748;50.016;19.890;2023-07-13T00:50:09;19.42;;;12.40;;
19691;SDS011;42748;50.016;19.890;2023-07-13T00:52:38;19.88;;;11.88;;
19691;SDS011;42748;50.016;19.890;2023-07-13T00:55:07;17.30;;;12.05;;
19691;SDS011;42748;50.016;19.890;2023-07-13T00:57:36;18.65;;;12.43;;
19691;SDS011;42748;50.016;19.890;2023-07-13T01:00:07;17.75;;;12.55;;
19691;SDS011;42748;50.016;19.890;2023-07-13T01:02:36;18.58;;;12.00;;
19691;SDS011;42748;50.016;19.890;2023-07-13T01:05:11;18.95;;;12.35;;
19691;SDS011;42748;50.016;19.890;2023-07-13T01:07:40;18.30;;;11.93;;
19691;SDS011;42748;50.016;19.890;2023-07-13T01:10:11;16.05;;;12.23;;
19691;SDS011;42748;50.016;19.890;2023-07-13T01:12:39;16.45;;;11.70;;
19691;SDS011;42748;50.016;19.890;2023-07-13T01:17:53;18.92;;;11.73;;
19691;SDS011;42748;50.016;19.890;2023-07-13T01:20:21;18.90;;;12.13;;
19691;SDS011;42748;50.016;19.890;2023-07-13T01:22:51;16.88;;;12.15;;
19691;SDS011;42748;50.016;19.890;2023-07-13T01:25:21;19.95;;;12.80;;
19691;SDS011;42748;50.016;19.890;2023-07-13T01:27:50;20.73;;;12.60;;
19691;SDS011;42748;50.016;19.890;2023-07-13T01:30:18;20.63;;;12.85;;
19691;SDS011;42748;50.016;19.890;2023-07-13T01:32:46;19.10;;;12.60;;
19691;SDS011;42748;50.016;19.890;2023-07-13T01:35:14;18.33;;;12.38;;
19691;SDS011;42748;50.016;19.890;2023-07-13T01:37:43;16.85;;;11.90;;
19691;SDS011;42748;50.016;19.890;2023-07-13T01:40:11;18.77;;;11.95;;
19691;SDS011;42748;50.016;19.890;2023-07-13T01:42:39;16.38;;;12.23;;
19691;SDS011;42748;50.016;19.890;2023-07-13T01:45:07;17.25;;;12.27;;
19691;SDS011;42748;50.016;19.890;2023-07-13T01:47:34;18.50;;;12.70;;
19691;SDS011;42748;50.016;19.890;2023-07-13T01:50:02;18.10;;;12.60;;
19691;SDS011;42748;50.016;19.890;2023-07-13T01:52:29;17.98;;;12.30;;
19691;SDS011;42748;50.016;19.890;2023-07-13T01:54:57;17.77;;;12.93;;
19691;SDS011;42748;50.016;19.890;2023-07-13T01:57:25;22.35;;;12.75;;
19691;SDS011;42748;50.016;19.890;2023-07-13T01:59:52;18.05;;;13.00;;
19691;SDS011;42748;50.016;19.890;2023-07-13T02:02:20;20.02;;;12.23;;
19691;SDS011;42748;50.016;19.890;2023-07-13T02:04:48;17.45;;;12.20;;
19691;SDS011;42748;50.016;19.890;2023-07-13T02:07:16;16.50;;;11.45;;
19691;SDS011;42748;50.016;19.890;2023-07-13T02:09:43;16.02;;;11.38;;
19691;SDS011;42748;50.016;19.890;2023-07-13T02:12:11;13.13;;;9.95;;
19691;SDS011;42748;50.016;19.890;2023-07-13T02:14:39;17.27;;;10.85;;
19691;SDS011;42748;50.016;19.890;2023-07-13T02:17:09;17.15;;;10.60;;
19691;SDS011;42748;50.016;19.890;2023-07-13T02:19:36;16.20;;;11.10;;
19691;SDS011;42748;50.016;19.890;2023-07-13T02:22:04;16.60;;;10.80;;
19691;SDS011;42748;50.016;19.890;2023-07-13T02:24:32;15.65;;;10.95;;
19691;SDS011;42748;50.016;19.890;2023-07-13T02:27:00;18.25;;;10.50;;
19691;SDS011;42748;50.016;19.890;2023-07-13T02:29:27;15.75;;;10.85;;
19691;SDS011;42748;50.016;19.890;2023-07-13T02:31:55;16.83;;;9.98;;
19691;SDS011;42748;50.016;19.890;2023-07-13T02:34:23;14.73;;;10.23;;
19691;SDS011;42748;50.016;19.890;2023-07-13T02:36:51;15.52;;;10.90;;
19691;SDS011;42748;50.016;19.890;2023-07-13T02:39:18;16.25;;;10.65;;
19691;SDS011;42748;50.016;19.890;2023-07-13T02:41:49;17.05;;;10.35;;
19691;SDS011;42748;50.016;19.890;2023-07-13T02:44:17;13.98;;;9.82;;
19691;SDS011;42748;50.016;19.890;2023-07-13T02:46:44;16.75;;;9.85;;
19691;SDS011;42748;50.016;19.890;2023-07-13T02:49:12;12.50;;;8.93;;
19691;SDS011;42748;50.016;19.890;2023-07-13T02:51:41;12.48;;;8.85;;
19691;SDS011;42748;50.016;19.890;2023-07-13T02:54:09;15.07;;;9.70;;
19691;SDS011;42748;50.016;19.890;2023-07-13T02:56:38;13.68;;;10.15;;
19691;SDS011;42748;50.016;19.890;2023-07-13T02:59:05;13.45;;;9.00;;
19691;SDS011;42748;50.016;19.890;2023-07-13T03:01:33;14.98;;;9.85;;
19691;SDS011;42748;50.016;19.890;2023-07-13T03:04:02;16.65;;;9.70;;
19691;SDS011;42748;50.016;19.890;2023-07-13T03:06:33;15.30;;;10.00;;
19691;SDS011;42748;50.016;19.890;2023-07-13T03:09:03;14.75;;;11.90;;
19691;SDS011;42748;50.016;19.890;2023-07-13T03:11:33;15.45;;;11.25;;
19691;SDS011;42748;50.016;19.890;2023-07-13T03:14:16;17.27;;;12.65;;
19691;SDS011;42748;50.016;19.890;2023-07-13T03:16:44;18.02;;;12.40;;
19691;SDS011;42748;50.016;19.890;2023-07-13T03:19:12;17.48;;;12.90;;
19691;SDS011;42748;50.016;19.890;2023-07-13T03:21:43;20.33;;;12.82;;
19691;SDS011;42748;50.016;19.890;2023-07-13T03:24:11;21.17;;;13.00;;
19691;SDS011;42748;50.016;19.890;2023-07-13T03:26:38;20.08;;;12.65;;
19691;SDS011;42748;50.016;19.890;2023-07-13T03:29:06;19.52;;;13.02;;
19691;SDS011;42748;50.016;19.890;2023-07-13T03:31:34;20.65;;;13.48;;
19691;SDS011;42748;50.016;19.890;2023-07-13T03:34:03;20.02;;;13.95;;
19691;SDS011;42748;50.016;19.890;2023-07-13T03:36:31;18.88;;;13.60;;
19691;SDS011;42748;50.016;19.890;2023-07-13T03:39:04;16.90;;;12.35;;
19691;SDS011;42748;50.016;19.890;2023-07-13T03:41:46;23.02;;;14.18;;
19691;SDS011;42748;50.016;19.890;2023-07-13T03:44:15;22.13;;;14.65;;
19691;SDS011;42748;50.016;19.890;2023-07-13T03:46:46;20.75;;;12.40;;
19691;SDS011;42748;50.016;19.890;2023-07-13T03:49:15;20.23;;;12.88;;
19691;SDS011;42748;50.016;19.890;2023-07-13T03:51:42;22.17;;;11.32;;
19691;SDS011;42748;50.016;19.890;2023-07-13T03:54:10;18.90;;;11.93;;
19691;SDS011;42748;50.016;19.890;2023-07-13T03:56:38;16.60;;;11.93;;
19691;SDS011;42748;50.016;19.890;2023-07-13T03:59:07;17.45;;;10.48;;
19691;SDS011;42748;50.016;19.890;2023-07-13T04:01:35;19.08;;;11.32;;
19691;SDS011;42748;50.016;19.890;2023-07-13T04:04:03;18.38;;;11.85;;
19691;SDS011;42748;50.016;19.890;2023-07-13T04:06:31;17.33;;;11.00;;
19691;SDS011;42748;50.016;19.890;2023-07-13T04:08:59;16.02;;;10.30;;
19691;SDS011;42748;50.016;19.890;2023-07-13T04:11:28;16.33;;;11.48;;
19691;SDS011;42748;50.016;19.890;2023-07-13T04:13:58;17.27;;;12.35;;
19691;SDS011;42748;50.016;19.890;2023-07-13T04:16:26;19.00;;;12.18;;
19691;SDS011;42748;50.016;19.890;2023-07-13T04:18:54;14.27;;;10.68;;
19691;SDS011;42748;50.016;19.890;2023-07-13T04:21:27;15.68;;;10.75;;
19691;SDS011;42748;50.016;19.890;2023-07-13T04:23:55;15.73;;;9.95;;
19691;SDS011;42748;50.016;19.890;2023-07-13T04:26:23;14.65;;;9.60;;
19691;SDS011;42748;50.016;19.890;2023-07-13T04:28:51;13.98;;;9.35;;
19691;SDS011;42748;50.016;19.890;2023-07-13T04:31:19;13.32;;;8.75;;
19691;SDS011;42748;50.016;19.890;2023-07-13T04:33:47;13.07;;;8.82;;
19691;SDS011;42748;50.016;19.890;2023-07-13T04:36:15;14.63;;;8.82;;
19691;SDS011;42748;50.016;19.890;2023-07-13T04:38:43;16.27;;;8.63;;
19691;SDS011;42748;50.016;19.890;2023-07-13T04:41:12;12.60;;;8.10;;
19691;SDS011;42748;50.016;19.890;2023-07-13T04:43:39;11.05;;;6.47;;
19691;SDS011;42748;50.016;19.890;2023-07-13T04:46:09;9.35;;;6.00;;
19691;SDS011;42748;50.016;19.890;2023-07-13T04:48:38;8.77;;;6.28;;
19691;SDS011;42748;50.016;19.890;2023-07-13T04:51:06;9.57;;;6.28;;
19691;SDS011;42748;50.016;19.890;2023-07-13T04:53:34;9.93;;;6.43;;
19691;SDS011;42748;50.016;19.890;2023-07-13T04:56:02;8.98;;;7.07;;
19691;SDS011;42748;50.016;19.890;2023-07-13T04:58:30;9.70;;;7.18;;
19691;SDS011;42748;50.016;19.890;2023-07-13T05:01:04;13.98;;;7.30;;
19691;SDS011;42748;50.016;19.890;2023-07-13T05:03:32;10.80;;;7.43;;
19691;SDS011;42748;50.016;19.890;2023-07-13T05:06:02;15.18;;;8.05;;
19691;SDS011;42748;50.016;19.890;2023-07-13T05:08:31;10.93;;;8.38;;
19691;SDS011;42748;50.016;19.890;2023-07-13T05:11:02;11.13;;;8.35;;
19691;SDS011;42748;50.016;19.890;2023-07-13T05:13:30;10.77;;;7.97;;
19691;SDS011;42748;50.016;19.890;2023-07-13T05:15:59;10.15;;;7.65;;
19691;SDS011;42748;50.016;19.890;2023-07-13T05:18:27;10.20;;;7.65;;
19691;SDS011;42748;50.016;19.890;2023-07-13T05:21:00;14.55;;;7.90;;
19691;SDS011;42748;50.016;19.890;2023-07-13T05:23:28;9.82;;;7.65;;
19691;SDS011;42748;50.016;19.890;2023-07-13T05:25:56;9.27;;;7.65;;
19691;SDS011;42748;50.016;19.890;2023-07-13T05:28:25;9.02;;;7.30;;
19691;SDS011;42748;50.016;19.890;2023-07-13T05:30:53;9.80;;;7.05;;
19691;SDS011;42748;50.016;19.890;2023-07-13T05:33:21;9.07;;;7.00;;
19691;SDS011;42748;50.016;19.890;2023-07-13T05:35:49;10.63;;;7.18;;
19691;SDS011;42748;50.016;19.890;2023-07-13T05:38:17;12.45;;;7.30;;
19691;SDS011;42748;50.016;19.890;2023-07-13T05:40:45;9.63;;;7.38;;
19691;SDS011;42748;50.016;19.890;2023-07-13T05:43:13;10.20;;;7.25;;
19691;SDS011;42748;50.016;19.890;2023-07-13T05:45:41;9.52;;;6.72;;
19691;SDS011;42748;50.016;19.890;2023-07-13T05:48:08;9.25;;;6.90;;
19691;SDS011;42748;50.016;19.890;2023-07-13T05:50:36;10.00;;;6.85;;
19691;SDS011;42748;50.016;19.890;2023-07-13T05:53:04;7.72;;;6.30;;
19691;SDS011;42748;50.016;19.890;2023-07-13T05:55:32;8.65;;;6.53;;
19691;SDS011;42748;50.016;19.890;2023-07-13T05:58:00;9.27;;;6.32;;
19691;SDS011;42748;50.016;19.890;2023-07-13T06:00:28;8.45;;;6.43;;
19691;SDS011;42748;50.016;19.890;2023-07-13T06:02:56;6.90;;;5.55;;
19691;SDS011;42748;50.016;19.890;2023-07-13T06:05:25;8.13;;;6.00;;
19691;SDS011;42748;50.016;19.890;2023-07-13T06:07:55;11.48;;;6.60;;
19691;SDS011;42748;50.016;19.890;2023-07-13T06:10:23;8.45;;;6.50;;
19691;SDS011;42748;50.016;19.890;2023-07-13T06:12:51;8.23;;;6.63;;
19691;SDS011;42748;50.016;19.890;2023-07-13T06:15:19;14.55;;;7.38;;
19691;SDS011;42748;50.016;19.890;2023-07-13T06:17:46;9.85;;;6.20;;
19691;SDS011;42748;50.016;19.890;2023-07-13T06:20:14;8.95;;;6.80;;
19691;SDS011;42748;50.016;19.890;2023-07-13T06:22:42;10.13;;;6.85;;
19691;SDS011;42748;50.016;19.890;2023-07-13T06:25:09;9.45;;;6.97;;
19691;SDS011;42748;50.016;19.890;2023-07-13T06:27:37;11.18;;;7.93;;
19691;SDS011;42748;50.016;19.890;2023-07-13T06:30:05;11.05;;;7.35;;
19691;SDS011;42748;50.016;19.890;2023-07-13T06:32:33;11.63;;;6.80;;
19691;SDS011;42748;50.016;19.890;2023-07-13T06:35:02;11.27;;;7.40;;
19691;SDS011;42748;50.016;19.890;2023-07-13T06:37:30;9.23;;;7.07;;
19691;SDS011;42748;50.016;19.890;2023-07-13T06:39:58;10.05;;;7.93;;
19691;SDS011;42748;50.016;19.890;2023-07-13T06:42:25;10.90;;;7.80;;
19691;SDS011;42748;50.016;19.890;2023-07-13T06:44:53;15.07;;;7.88;;
19691;SDS011;42748;50.016;19.890;2023-07-13T06:47:21;12.63;;;7.75;;
19691;SDS011;42748;50.016;19.890;2023-07-13T06:49:48;12.10;;;7.72;;
19691;SDS011;42748;50.016;19.890;2023-07-13T06:52:16;9.13;;;7.72;;
19691;SDS011;42748;50.016;19.890;2023-07-13T06:54:43;11.23;;;7.88;;
19691;SDS011;42748;50.016;19.890;2023-07-13T06:57:11;10.27;;;7.57;;
19691;SDS011;42748;50.016;19.890;2023-07-13T06:59:39;14.40;;;8.20;;
19691;SDS011;42748;50.016;19.890;2023-07-13T07:02:07;15.20;;;7.90;;
19691;SDS011;42748;50.016;19.890;2023-07-13T07:04:36;10.25;;;6.80;;
19691;SDS011;42748;50.016;19.890;2023-07-13T07:07:03;11.05;;;6.53;;
19691;SDS011;42748;50.016;19.890;2023-07-13T07:09:31;12.60;;;6.68;;
19691;SDS011;42748;50.016;19.890;2023-07-13T07:11:59;8.35;;;5.93;;
19691;SDS011;42748;50.016;19.890;2023-07-13T07:14:30;10.05;;;6.43;;
19691;SDS011;42748;50.016;19.890;2023-07-13T07:16:58;12.00;;;7.10;;
19691;SDS011;42748;50.016;19.890;2023-07-13T07:19:29;12.23;;;6.95;;
19691;SDS011;42748;50.016;19.890;2023-07-13T07:21:57;11.57;;;6.53;;
19691;SDS011;42748;50.016;19.890;2023-07-13T07:24:25;12.25;;;7.15;;
19691;SDS011;42748;50.016;19.890;2023-07-13T07:26:53;10.38;;;6.85;;
19691;SDS011;42748;50.016;19.890;2023-07-13T07:29:24;8.77;;;6.07;;
19691;SDS011;42748;50.016;19.890;2023-07-13T07:31:55;9.10;;;6.80;;
19691;SDS011;42748;50.016;19.890;2023-07-13T07:34:31;11.38;;;6.22;;
19691;SDS011;42748;50.016;19.890;2023-07-13T07:36:59;12.52;;;6.72;;
19691;SDS011;42748;50.016;19.890;2023-07-13T07:39:30;10.88;;;6.60;;
19691;SDS011;42748;50.016;19.890;2023-07-13T07:41:57;9.80;;;7.18;;
19691;SDS011;42748;50.016;19.890;2023-07-13T07:44:25;12.35;;;6.53;;
19691;SDS011;42748;50.016;19.890;2023-07-13T07:46:55;13.38;;;7.13;;
19691;SDS011;42748;50.016;19.890;2023-07-13T07:49:23;13.02;;;6.93;;
19691;SDS011;42748;50.016;19.890;2023-07-13T07:51:50;13.13;;;7.32;;
19691;SDS011;42748;50.016;19.890;2023-07-13T07:54:18;10.32;;;6.68;;
19691;SDS011;42748;50.016;19.890;2023-07-13T07:57:06;7.88;;;6.30;;
19691;SDS011;42748;50.016;19.890;2023-07-13T07:59:37;11.00;;;6.50;;
19691;SDS011;42748;50.016;19.890;2023-07-13T08:02:08;9.13;;;6.43;;
19691;SDS011;42748;50.016;19.890;2023-07-13T08:04:57;11.00;;;7.30;;
19691;SDS011;42748;50.016;19.890;2023-07-13T08:07:30;10.82;;;6.40;;
19691;SDS011;42748;50.016;19.890;2023-07-13T08:09:59;10.68;;;6.50;;
19691;SDS011;42748;50.016;19.890;2023-07-13T08:12:27;10.02;;;6.40;;
19691;SDS011;42748;50.016;19.890;2023-07-13T08:14:57;9.25;;;6.68;;
19691;SDS011;42748;50.016;19.890;2023-07-13T08:17:27;10.40;;;6.70;;
19691;SDS011;42748;50.016;19.890;2023-07-13T08:19:55;8.77;;;6.28;;
19691;SDS011;42748;50.016;19.890;2023-07-13T08:22:23;10.70;;;6.10;;
19691;SDS011;42748;50.016;19.890;2023-07-13T08:24:51;9.45;;;6.47;;
19691;SDS011;42748;50.016;19.890;2023-07-13T08:27:23;9.63;;;6.47;;
19691;SDS011;42748;50.016;19.890;2023-07-13T08:29:51;12.73;;;6.43;;
19691;SDS011;42748;50.016;19.890;2023-07-13T08:32:20;8.70;;;6.30;;
19691;SDS011;42748;50.016;19.890;2023-07-13T08:34:48;9.45;;;6.10;;
19691;SDS011;42748;50.016;19.890;2023-07-13T08:37:16;8.20;;;5.63;;
19691;SDS011;42748;50.016;19.890;2023-07-13T08:39:43;10.15;;;6.20;;
19691;SDS011;42748;50.016;19.890;2023-07-13T08:47:25;8.25;;;6.38;;
19691;SDS011;42748;50.016;19.890;2023-07-13T08:49:53;10.95;;;6.32;;
19691;SDS011;42748;50.016;19.890;2023-07-13T08:54:54;8.30;;;6.03;;
19691;SDS011;42748;50.016;19.890;2023-07-13T08:57:26;8.13;;;5.63;;
19691;SDS011;42748;50.016;19.890;2023-07-13T08:59:56;10.90;;;6.20;;
19691;SDS011;42748;50.016;19.890;2023-07-13T09:15:05;8.25;;;6.00;;
19691;SDS011;42748;50.016;19.890;2023-07-13T09:17:45;9.63;;;6.78;;
19691;SDS011;42748;50.016;19.890;2023-07-13T09:20:19;10.05;;;6.32;;
19691;SDS011;42748;50.016;19.890;2023-07-13T09:22:49;11.25;;;6.40;;
19691;SDS011;42748;50.016;19.890;2023-07-13T09:25:23;9.40;;;6.68;;
19691;SDS011;42748;50.016;19.890;2023-07-13T09:27:53;11.30;;;6.40;;
19691;SDS011;42748;50.016;19.890;2023-07-13T09:30:34;8.50;;;6.07;;
19691;SDS011;42748;50.016;19.890;2023-07-13T09:33:04;14.82;;;6.78;;
19691;SDS011;42748;50.016;19.890;2023-07-13T09:35:34;8.88;;;6.40;;
19691;SDS011;42748;50.016;19.890;2023-07-13T09:38:04;11.80;;;6.72;;
19691;SDS011;42748;50.016;19.890;2023-07-13T09:40:40;12.45;;;6.28;;
19691;SDS011;42748;50.016;19.890;2023-07-13T09:43:11;10.82;;;6.75;;
19691;SDS011;42748;50.016;19.890;2023-07-13T09:45:40;10.00;;;7.28;;
19691;SDS011;42748;50.016;19.890;2023-07-13T09:48:12;18.75;;;7.75;;
19691;SDS011;42748;50.016;19.890;2023-07-13T09:50:41;13.63;;;7.57;;
19691;SDS011;42748;50.016;19.890;2023-07-13T09:53:11;8.98;;;6.30;;
19691;SDS011;42748;50.016;19.890;2023-07-13T09:55:40;10.75;;;6.00;;
19691;SDS011;42748;50.016;19.890;2023-07-13T10:00:37;10.25;;;6.32;;
19691;SDS011;42748;50.016;19.890;2023-07-13T10:05:41;10.13;;;6.03;;
19691;SDS011;42748;50.016;19.890;2023-07-13T10:08:28;8.75;;;5.90;;
19691;SDS011;42748;50.016;19.890;2023-07-13T10:11:00;8.98;;;5.90;;
19691;SDS011;42748;50.016;19.890;2023-07-13T10:13:34;9.35;;;6.45;;
19691;SDS011;42748;50.016;19.890;2023-07-13T10:16:04;8.77;;;6.00;;
19691;SDS011;42748;50.016;19.890;2023-07-13T10:18:41;8.93;;;6.43;;
19691;SDS011;42748;50.016;19.890;2023-07-13T10:21:11;9.50;;;6.35;;
19691;SDS011;42748;50.016;19.890;2023-07-13T10:23:43;10.02;;;7.30;;
19691;SDS011;42748;50.016;19.890;2023-07-13T10:26:14;13.80;;;7.72;;
19691;SDS011;42748;50.016;19.890;2023-07-13T10:28:42;10.45;;;8.52;;
19691;SDS011;42748;50.016;19.890;2023-07-13T10:31:13;14.05;;;8.35;;
19691;SDS011;42748;50.016;19.890;2023-07-13T10:33:42;14.55;;;8.85;;
19691;SDS011;42748;50.016;19.890;2023-07-13T10:39:20;15.48;;;9.57;;
19691;SDS011;42748;50.016;19.890;2023-07-13T10:41:52;14.77;;;9.80;;
19691;SDS011;42748;50.016;19.890;2023-07-13T10:44:24;13.35;;;9.60;;
19691;SDS011;42748;50.016;19.890;2023-07-13T10:46:56;15.48;;;9.80;;
19691;SDS011;42748;50.016;19.890;2023-07-13T10:49:26;11.88;;;10.10;;
19691;SDS011;42748;50.016;19.890;2023-07-13T10:51:54;14.65;;;10.93;;
19691;SDS011;42748;50.016;19.890;2023-07-13T10:54:26;17.48;;;10.60;;
19691;SDS011;42748;50.016;19.890;2023-07-13T10:57:07;16.25;;;11.05;;
19691;SDS011;42748;50.016;19.890;2023-07-13T10:59:36;18.83;;;11.65;;
19691;SDS011;42748;50.016;19.890;2023-07-13T11:04:44;17.95;;;13.07;;
19691;SDS011;42748;50.016;19.890;2023-07-13T11:07:25;21.15;;;14.57;;
19691;SDS011;42748;50.016;19.890;2023-07-13T11:09:54;23.77;;;14.85;;
19691;SDS011;42748;50.016;19.890;2023-07-13T11:22:50;31.45;;;19.75;;
19691;SDS011;42748;50.016;19.890;2023-07-13T11:27:49;34.47;;;21.42;;
19691;SDS011;42748;50.016;19.890;2023-07-13T11:32:45;33.03;;;21.77;;
19691;SDS011;42748;50.016;19.890;2023-07-13T11:35:23;14.40;;;7.90;;
19691;SDS011;42748;50.016;19.890;2023-07-13T11:37:53;11.63;;;5.40;;
19691;SDS011;42748;50.016;19.890;2023-07-13T11:40:22;7.78;;;4.10;;
19691;SDS011;42748;50.016;19.890;2023-07-13T11:42:58;8.57;;;4.55;;
19691;SDS011;42748;50.016;19.890;2023-07-13T11:45:28;8.80;;;4.18;;
19691;SDS011;42748;50.016;19.890;2023-07-13T11:48:23;7.80;;;4.55;;
19691;SDS011;42748;50.016;19.890;2023-07-13T11:50:52;7.07;;;4.70;;
19691;SDS011;42748;50.016;19.890;2023-07-13T11:53:21;7.15;;;4.72;;
19691;SDS011;42748;50.016;19.890;2023-07-13T11:55:49;10.18;;;5.15;;
19691;SDS011;42748;50.016;19.890;2023-07-13T11:58:19;7.47;;;5.28;;
19691;SDS011;42748;50.016;19.890;2023-07-13T12:00:47;9.05;;;5.10;;
19691;SDS011;42748;50.016;19.890;2023-07-13T12:03:18;6.28;;;4.47;;
19691;SDS011;42748;50.016;19.890;2023-07-13T12:08:28;7.97;;;5.18;;
19691;SDS011;42748;50.016;19.890;2023-07-13T12:10:57;8.90;;;5.55;;
19691;SDS011;42748;50.016;19.890;2023-07-13T12:13:26;9.75;;;4.55;;
19691;SDS011;42748;50.016;19.890;2023-07-13T12:15:55;5.85;;;4.35;;
19691;SDS011;42748;50.016;19.890;2023-07-13T12:18:30;7.00;;;4.63;;
19691;SDS011;42748;50.016;19.890;2023-07-13T12:20:58;7.65;;;4.43;;
19691;SDS011;42748;50.016;19.890;2023-07-13T12:23:33;9.93;;;4.50;;
19691;SDS011;42748;50.016;19.890;2023-07-13T12:26:04;5.88;;;3.72;;
19691;SDS011;42748;50.016;19.890;2023-07-13T12:28:36;9.20;;;4.20;;
19691;SDS011;42748;50.016;19.890;2023-07-13T12:31:05;7.25;;;3.28;;
19691;SDS011;42748;50.016;19.890;2023-07-13T12:33:34;6.68;;;3.80;;
19691;SDS011;42748;50.016;19.890;2023-07-13T12:36:05;6.07;;;3.40;;
19691;SDS011;42748;50.016;19.890;2023-07-13T12:38:33;6.07;;;4.00;;
19691;SDS011;42748;50.016;19.890;2023-07-13T12:41:01;6.53;;;3.22;;
19691;SDS011;42748;50.016;19.890;2023-07-13T12:43:32;5.07;;;3.80;;
19691;SDS011;42748;50.016;19.890;2023-07-13T12:46:05;6.03;;;3.67;;
19691;SDS011;42748;50.016;19.890;2023-07-13T12:48:43;3.63;;;2.67;;
19691;SDS011;42748;50.016;19.890;2023-07-13T12:51:27;5.93;;;3.08;;
19691;SDS011;42748;50.016;19.890;2023-07-13T12:54:05;3.75;;;2.60;;
19691;SDS011;42748;50.016;19.890;2023-07-13T12:56:33;6.85;;;3.00;;
19691;SDS011;42748;50.016;19.890;2023-07-13T12:59:02;6.88;;;3.70;;
19691;SDS011;42748;50.016;19.890;2023-07-13T13:01:32;7.60;;;4.05;;
19691;SDS011;42748;50.016;19.890;2023-07-13T13:04:01;7.10;;;4.55;;
19691;SDS011;42748;50.016;19.890;2023-07-13T13:06:35;6.93;;;3.90;;
19691;SDS011;42748;50.016;19.890;2023-07-13T13:09:05;6.60;;;4.35;;
19691;SDS011;42748;50.016;19.890;2023-07-13T13:11:37;9.05;;;4.82;;
19691;SDS011;42748;50.016;19.890;2023-07-13T13:14:04;6.25;;;4.18;;
19691;SDS011;42748;50.016;19.890;2023-07-13T13:16:35;8.20;;;4.80;;
19691;SDS011;42748;50.016;19.890;2023-07-13T13:19:13;7.72;;;4.85;;
19691;SDS011;42748;50.016;19.890;2023-07-13T13:21:42;6.47;;;5.15;;
19691;SDS011;42748;50.016;19.890;2023-07-13T13:24:11;9.40;;;5.47;;
19691;SDS011;42748;50.016;19.890;2023-07-13T13:26:40;7.93;;;5.25;;
19691;SDS011;42748;50.016;19.890;2023-07-13T13:29:12;7.85;;;4.63;;
19691;SDS011;42748;50.016;19.890;2023-07-13T13:31:40;8.75;;;5.35;;
19691;SDS011;42748;50.016;19.890;2023-07-13T13:34:12;8.02;;;5.18;;
19691;SDS011;42748;50.016;19.890;2023-07-13T13:36:41;8.18;;;5.20;;
19691;SDS011;42748;50.016;19.890;2023-07-13T13:41:47;8.20;;;6.05;;
19691;SDS011;42748;50.016;19.890;2023-07-13T13:44:16;10.73;;;7.07;;
19691;SDS011;42748;50.016;19.890;2023-07-13T13:46:47;11.82;;;7.38;;
19691;SDS011;42748;50.016;19.890;2023-07-13T13:49:16;11.32;;;7.35;;
19691;SDS011;42748;50.016;19.890;2023-07-13T13:51:44;10.20;;;7.68;;
19691;SDS011;42748;50.016;19.890;2023-07-13T13:54:13;11.13;;;7.60;;
19691;SDS011;42748;50.016;19.890;2023-07-13T13:56:42;10.93;;;6.82;;
19691;SDS011;42748;50.016;19.890;2023-07-13T13:59:11;11.45;;;6.80;;
19691;SDS011;42748;50.016;19.890;2023-07-13T14:01:38;11.35;;;6.55;;
19691;SDS011;42748;50.016;19.890;2023-07-13T14:04:06;9.48;;;6.70;;
19691;SDS011;42748;50.016;19.890;2023-07-13T14:06:36;9.38;;;6.40;;
19691;SDS011;42748;50.016;19.890;2023-07-13T14:09:10;11.38;;;5.75;;
19691;SDS011;42748;50.016;19.890;2023-07-13T14:11:39;8.80;;;4.70;;
19691;SDS011;42748;50.016;19.890;2023-07-13T14:14:17;8.15;;;4.95;;
19691;SDS011;42748;50.016;19.890;2023-07-13T14:16:45;6.90;;;4.43;;
19691;SDS011;42748;50.016;19.890;2023-07-13T14:19:20;6.55;;;3.95;;
19691;SDS011;42748;50.016;19.890;2023-07-13T14:21:47;5.05;;;4.15;;
19691;SDS011;42748;50.016;19.890;2023-07-13T14:24:16;7.38;;;4.43;;
19691;SDS011;42748;50.016;19.890;2023-07-13T14:26:45;6.55;;;4.22;;
19691;SDS011;42748;50.016;19.890;2023-07-13T14:29:14;5.90;;;4.40;;
19691;SDS011;42748;50.016;19.890;2023-07-13T14:31:46;6.55;;;4.10;;
19691;SDS011;42748;50.016;19.890;2023-07-13T14:34:14;5.78;;;4.25;;
19691;SDS011;42748;50.016;19.890;2023-07-13T14:36:47;6.80;;;4.60;;
19691;SDS011;42748;50.016;19.890;2023-07-13T14:39:17;7.85;;;4.50;;
19691;SDS011;42748;50.016;19.890;2023-07-13T14:41:45;10.57;;;5.03;;
19691;SDS011;42748;50.016;19.890;2023-07-13T14:44:14;8.20;;;4.65;;
19691;SDS011;42748;50.016;19.890;2023-07-13T14:46:43;8.00;;;4.65;;
19691;SDS011;42748;50.016;19.890;2023-07-13T14:49:16;6.53;;;4.50;;
19691;SDS011;42748;50.016;19.890;2023-07-13T14:51:48;8.68;;;5.22;;
19691;SDS011;42748;50.016;19.890;2023-07-13T14:54:15;9.23;;;4.68;;
19691;SDS011;42748;50.016;19.890;2023-07-13T14:56:43;6.93;;;4.80;;
19691;SDS011;42748;50.016;19.890;2023-07-13T14:59:12;6.13;;;4.32;;
19691;SDS011;42748;50.016;19.890;2023-07-13T15:01:40;7.68;;;5.00;;
19691;SDS011;42748;50.016;19.890;2023-07-13T15:04:08;8.07;;;4.75;;
19691;SDS011;42748;50.016;19.890;2023-07-13T15:06:59;8.40;;;5.00;;
19691;SDS011;42748;50.016;19.890;2023-07-13T15:09:28;8.98;;;5.35;;
19691;SDS011;42748;50.016;19.890;2023-07-13T15:11:56;7.28;;;6.57;;
19691;SDS011;42748;50.016;19.890;2023-07-13T15:14:25;7.47;;;6.47;;
19691;SDS011;42748;50.016;19.890;2023-07-13T15:16:55;7.60;;;6.32;;
19691;SDS011;42748;50.016;19.890;2023-07-13T15:19:23;9.30;;;7.25;;
19691;SDS011;42748;50.016;19.890;2023-07-13T15:21:52;9.48;;;6.70;;
19691;SDS011;42748;50.016;19.890;2023-07-13T15:24:21;7.50;;;6.05;;
19691;SDS011;42748;50.016;19.890;2023-07-13T15:26:49;10.80;;;6.43;;
19691;SDS011;42748;50.016;19.890;2023-07-13T15:29:18;6.50;;;5.80;;
19691;SDS011;42748;50.016;19.890;2023-07-13T15:31:46;7.60;;;5.97;;
19691;SDS011;42748;50.016;19.890;2023-07-13T15:34:15;7.07;;;5.70;;